createdAt,value
2023-03-22T00:02:45.368Z,100868.56
2023-03-22T00:07:46.723Z,100857.22
2023-03-22T00:12:45.788Z,100848.56
2023-03-22T00:17:47.488Z,100838.44
2023-03-22T00:22:46.157Z,100848.25
2023-03-22T00:27:44.390Z,100850.69
2023-03-22T00:32:46.548Z,100857.31
2023-03-22T00:37:53.461Z,100860.69
2023-03-22T00:42:58.676Z,100860.38
2023-03-22T00:48:01.813Z,100856.34
2023-03-22T00:53:01.428Z,100851.31
2023-03-22T00:58:05.562Z,100849.47
2023-03-22T01:03:07.414Z,100851.13
2023-03-22T01:08:10.332Z,100856.47
2023-03-22T01:13:11.939Z,100854.53
2023-03-22T01:18:14.209Z,100860.56
2023-03-22T01:23:13.486Z,100847.84
2023-03-22T01:28:16.477Z,100843.72
2023-03-22T01:33:16.122Z,100845.88
2023-03-22T01:38:14.965Z,100850.63
2023-03-22T01:43:26.209Z,100842.00
2023-03-22T01:48:28.367Z,100843.44
2023-03-22T01:53:32.150Z,100846.41
2023-03-22T01:58:31.789Z,100840.97
2023-03-22T02:03:40.861Z,100844.59
2023-03-22T02:08:42.876Z,100846.22
2023-03-22T02:14:07.233Z,100848.03
2023-03-22T02:19:33.273Z,100846.50
2023-03-22T02:24:30.947Z,100848.88
2023-03-22T02:29:38.842Z,100858.94
2023-03-22T02:34:52.686Z,100860.34
2023-03-22T02:39:54.768Z,100870.44
2023-03-22T02:45:12.785Z,100879.78
2023-03-22T02:50:22.153Z,100887.59
2023-03-22T02:55:31.023Z,100890.19
2023-03-22T03:00:29.356Z,100888.47
2023-03-22T03:05:32.998Z,100885.19
2023-03-22T03:10:33.454Z,100890.22
2023-03-22T03:15:39.702Z,100885.56
2023-03-22T03:20:57.847Z,100882.63
2023-03-22T03:26:17.137Z,100887.97
2023-03-22T03:31:41.303Z,100899.06
2023-03-22T03:36:43.321Z,100896.53
2023-03-22T03:41:43.228Z,100897.72
2023-03-22T03:46:45.469Z,100892.84
2023-03-22T03:51:52.142Z,100900.66
2023-03-22T03:56:54.636Z,100907.41
2023-03-22T04:01:58.319Z,100903.34
2023-03-22T04:07:11.254Z,100913.53
2023-03-22T04:12:15.837Z,100917.66
2023-03-22T04:17:28.693Z,100925.41
2023-03-22T04:22:34.672Z,100920.88
2023-03-22T04:27:36.070Z,100933.16
2023-03-22T04:32:46.358Z,100921.22
2023-03-22T04:37:53.957Z,100926.00
2023-03-22T04:42:57.720Z,100932.94
2023-03-22T04:48:23.302Z,100939.47
2023-03-22T04:53:27.702Z,100938.84
2023-03-22T04:58:34.200Z,100945.69
2023-03-22T05:03:34.274Z,100948.16
2023-03-22T05:08:33.900Z,100950.47
2023-03-22T05:13:34.956Z,100957.72
2023-03-22T05:18:33.756Z,100957.47
2023-03-22T05:23:32.816Z,100972.22
2023-03-22T05:28:39.385Z,100967.72
2023-03-22T05:33:48.671Z,100968.69
2023-03-22T05:38:51.457Z,100977.72
2023-03-22T05:43:51.298Z,100987.13
2023-03-22T05:48:51.699Z,100989.28
2023-03-22T05:53:51.954Z,100998.75
2023-03-22T05:58:54.916Z,100989.53
2023-03-22T06:03:55.846Z,100992.88
2023-03-22T06:09:16.490Z,100993.22
2023-03-22T06:14:28.839Z,100996.41
2023-03-22T06:19:47.686Z,101008.03
2023-03-22T06:24:46.530Z,101017.28
2023-03-22T06:29:55.161Z,101023.41
2023-03-22T06:34:59.236Z,101027.34
2023-03-22T06:40:01.182Z,101024.94
2023-03-22T06:45:01.258Z,101030.00
2023-03-22T06:50:04.616Z,101045.63
2023-03-22T06:55:28.916Z,101047.56
2023-03-22T07:00:31.033Z,101050.31
2023-03-22T07:05:33.301Z,101055.34
2023-03-22T07:10:48.536Z,101047.22
2023-03-22T07:21:23.910Z,101069.38
2023-03-22T07:26:27.791Z,101067.91
2023-03-22T07:31:40.700Z,101069.53
2023-03-22T07:36:53.066Z,101075.56
2023-03-22T07:41:55.042Z,101081.31
2023-03-22T07:46:59.369Z,101078.25
2023-03-22T07:52:04.240Z,101090.91
2023-03-22T07:57:07.257Z,101087.19
2023-03-22T08:02:12.629Z,101088.69
2023-03-22T08:07:21.265Z,101090.19
2023-03-22T08:12:19.400Z,101095.59
2023-03-22T08:17:47.314Z,101088.69
2023-03-22T08:23:17.514Z,101096.75
2023-03-22T08:28:40.538Z,101090.69
2023-03-22T08:33:44.014Z,101089.31
2023-03-22T08:38:46.437Z,101094.97
2023-03-22T08:43:49.672Z,101095.13
2023-03-22T08:48:52.837Z,101095.66
2023-03-22T08:54:08.184Z,101100.19
2023-03-22T08:59:41.219Z,101101.75
2023-03-22T09:05:19.051Z,101094.78
2023-03-22T09:10:19.973Z,101101.41
2023-03-22T09:15:27.176Z,101102.72
2023-03-22T09:20:49.637Z,101108.16
2023-03-22T09:25:57.361Z,101108.09
2023-03-22T09:31:04.864Z,101113.13
2023-03-22T09:36:08.641Z,101105.19
2023-03-22T09:41:10.110Z,101104.44
2023-03-22T09:46:15.803Z,101102.69
2023-03-22T09:51:30.053Z,101109.91
2023-03-22T09:56:36.107Z,101103.56
2023-03-22T10:01:42.665Z,101112.28
2023-03-22T10:06:43.269Z,101116.28
2023-03-22T10:11:45.571Z,101112.50
2023-03-22T10:16:47.949Z,101117.13
2023-03-22T10:21:46.851Z,101121.16
2023-03-22T10:26:47.575Z,101111.06
2023-03-22T10:31:51.880Z,101111.22
2023-03-22T10:36:53.190Z,101110.72
2023-03-22T10:41:57.983Z,101102.13
2023-03-22T10:47:10.682Z,101104.13
2023-03-22T10:52:23.683Z,101105.47
2023-03-22T10:57:22.992Z,101095.56
2023-03-22T11:02:26.969Z,101088.59
2023-03-22T11:07:34.507Z,101095.63
2023-03-22T11:12:40.107Z,101096.88
2023-03-22T11:17:39.582Z,101083.38
2023-03-22T11:22:41.687Z,101081.16
2023-03-22T11:27:59.338Z,101079.78
2023-03-22T11:33:30.944Z,101073.56
2023-03-22T11:38:35.645Z,101076.16
2023-03-22T11:43:58.087Z,101071.66
2023-03-22T11:49:03.309Z,101068.28
2023-03-22T11:54:29.282Z,101069.75
2023-03-22T11:59:35.225Z,101065.19
2023-03-22T12:04:39.783Z,101062.09
2023-03-22T12:09:51.957Z,101065.34
2023-03-22T12:15:14.514Z,101064.25
2023-03-22T12:20:31.442Z,101065.41
2023-03-22T12:25:34.523Z,101052.22
2023-03-22T12:31:31.200Z,101061.03
2023-03-22T12:36:44.200Z,101072.75
2023-03-22T12:41:49.691Z,101066.91
2023-03-22T12:47:12.920Z,101057.91
2023-03-22T12:52:17.537Z,101061.50
2023-03-22T12:57:20.764Z,101053.69
2023-03-22T13:02:22.236Z,101064.03
2023-03-22T13:07:39.863Z,101063.34
2023-03-22T13:12:58.814Z,101055.69
2023-03-22T13:18:21.161Z,101058.13
2023-03-22T13:23:34.352Z,101044.56
2023-03-22T13:28:39.778Z,101051.75
2023-03-22T13:33:47.670Z,101040.66
2023-03-22T13:38:54.091Z,101041.28
2023-03-22T13:43:52.682Z,101039.28
2023-03-22T13:48:57.959Z,101042.28
2023-03-22T13:54:14.433Z,101035.50
2023-03-22T13:59:34.153Z,101037.31
2023-03-22T14:04:58.621Z,101040.28
2023-03-22T14:09:56.962Z,101031.91
2023-03-22T14:14:58.269Z,101028.44
2023-03-22T14:19:59.640Z,101038.13
